This is the latest recevied weather packets stored in our database for station/object KQ4OSL. If no packets are shown the sender has not sent any weather packets the latest 10 day(s).
| Time | Temp. | Humidity | Pressure | Rain* | Wind** | Luminosity | Snow |
|---|---|---|---|---|---|---|---|
| 1777721917 | 10.56° C | 84% | 1013.8 hPa | 0 mm | - | 8 W/m² | - |
| 1777721615 | 10.56° C | 83% | 1013.8 hPa | 0 mm | - | 7 W/m² | - |
| 1777721313 | 10.56° C | 82% | 1014.5 hPa | 0 mm | - | 4 W/m² | - |
| 1777721010 | 10.56° C | 83% | 1014.1 hPa | 0 mm | - | 7 W/m² | - |
| 1777720708 | 10.56° C | 84% | 1013.4 hPa | 0 mm | - | 17 W/m² | - |
| 1777720405 | 10.56° C | 84% | 1013.9 hPa | 0 mm | - | 7 W/m² | - |
| 1777720103 | 10.56° C | 84% | 1013.8 hPa | 0 mm | - | 4 W/m² | - |
| 1777719800 | 10.56° C | 84% | 1014 hPa | 0 mm | - | 2 W/m² | - |
| 1777719498 | 10.56° C | 83% | 1014.1 hPa | 0 mm | - | 1 W/m² | - |
| 1777719194 | 11.11° C | 82% | 1014.2 hPa | 0 mm | - | 1 W/m² | - |
| 1777718892 | 11.11° C | 81% | 1014.2 hPa | 0 mm | - | 0 W/m² | - |
| 1777718589 | 10.56° C | 81% | 1014.1 hPa | 0 mm | - | 0 W/m² | - |
| 1777718286 | 10.56° C | 87% | 1014.6 hPa | 0 mm | - | 0 W/m² | - |
| 1777717983 | 11.11° C | 89% | 1014.4 hPa | 0 mm | - | 0 W/m² | - |
| 1777717681 | 11.11° C | 79% | 1014.3 hPa | 0 mm | - | 0 W/m² | - |
| 1777717377 | 11.67° C | 79% | 1014.4 hPa | 0 mm | - | 0 W/m² | - |
| 1777717075 | 11.67° C | 78% | 1014.2 hPa | 0 mm | - | 0 W/m² | - |
| 1777716773 | 11.67° C | 78% | 1014.4 hPa | 0 mm | - | 0 W/m² | - |
| 1777716471 | 11.67° C | 79% | 1014.3 hPa | 0 mm | - | 0 W/m² | - |
| 1777716170 | 11.67° C | 81% | 1014.1 hPa | 0 mm | - | 0 W/m² | - |
| 1777715867 | 11.67° C | 82% | 1013.9 hPa | 0 mm | - | 0 W/m² | - |
| 1777715564 | 11.67° C | 80% | 1013.8 hPa | 0 mm | - | 0 W/m² | - |
| 1777715262 | 11.67° C | 81% | 1013.4 hPa | 0 mm | - | 0 W/m² | - |
| 1777714960 | 11.67° C | 82% | 1013.4 hPa | 0 mm | - | 0 W/m² | - |
| 1777714657 | 11.67° C | 82% | 1013 hPa | 0 mm | - | 0 W/m² | - |
* Rain latest hour (hover to see other rain measurements)
** Current wind speed in m/s (hover to see current wind gust speed)